sensor_id;sensor_type;location;lat;lon;timestamp;pressure;altitude;pressure_sealevel;temperature;humidity
69127;BME280;56688;50.234;19.292;2023-02-26T00:02:20;97317.45;;;1.83;75.78
69127;BME280;56688;50.234;19.292;2023-02-26T00:04:47;97315.60;;;1.80;75.79
69127;BME280;56688;50.234;19.292;2023-02-26T00:07:14;97326.41;;;1.82;76.12
69127;BME280;56688;50.234;19.292;2023-02-26T00:09:40;97328.16;;;1.86;76.11
69127;BME280;56688;50.234;19.292;2023-02-26T00:12:10;97335.17;;;1.89;76.15
69127;BME280;56688;50.234;19.292;2023-02-26T00:14:37;97338.91;;;1.92;75.97
69127;BME280;56688;50.234;19.292;2023-02-26T00:17:07;97345.85;;;1.94;76.14
69127;BME280;56688;50.234;19.292;2023-02-26T00:19:37;97348.06;;;1.97;75.99
69127;BME280;56688;50.234;19.292;2023-02-26T00:22:03;97346.45;;;1.94;75.88
69127;BME280;56688;50.234;19.292;2023-02-26T00:24:32;97350.63;;;1.92;75.60
69127;BME280;56688;50.234;19.292;2023-02-26T00:27:00;97351.83;;;1.91;75.74
69127;BME280;56688;50.234;19.292;2023-02-26T00:29:27;97350.67;;;1.89;75.73
69127;BME280;56688;50.234;19.292;2023-02-26T00:31:54;97352.52;;;1.91;75.84
69127;BME280;56688;50.234;19.292;2023-02-26T00:34:21;97356.02;;;1.91;75.74
69127;BME280;56688;50.234;19.292;2023-02-26T00:37:02;97362.98;;;1.90;75.64
69127;BME280;56688;50.234;19.292;2023-02-26T00:40:00;97368.89;;;1.89;75.43
69127;BME280;56688;50.234;19.292;2023-02-26T00:42:31;97377.18;;;1.85;75.56
69127;BME280;56688;50.234;19.292;2023-02-26T00:44:58;97378.75;;;1.84;75.58
69127;BME280;56688;50.234;19.292;2023-02-26T00:47:47;97381.27;;;1.83;75.72
69127;BME280;56688;50.234;19.292;2023-02-26T00:50:17;97384.30;;;1.81;75.93
69127;BME280;56688;50.234;19.292;2023-02-26T00:53:07;97381.11;;;1.81;75.51
69127;BME280;56688;50.234;19.292;2023-02-26T00:55:37;97385.56;;;1.81;75.48
69127;BME280;56688;50.234;19.292;2023-02-26T00:58:04;97382.17;;;1.81;75.40
69127;BME280;56688;50.234;19.292;2023-02-26T01:00:31;97384.23;;;1.82;74.97
69127;BME280;56688;50.234;19.292;2023-02-26T01:02:58;97387.03;;;1.84;74.95
69127;BME280;56688;50.234;19.292;2023-02-26T01:05:25;97390.98;;;1.83;74.68
69127;BME280;56688;50.234;19.292;2023-02-26T01:10:27;97398.90;;;1.76;74.61
69127;BME280;56688;50.234;19.292;2023-02-26T01:12:54;97405.64;;;1.72;74.99
69127;BME280;56688;50.234;19.292;2023-02-26T01:15:23;97404.30;;;1.72;75.17
69127;BME280;56688;50.234;19.292;2023-02-26T01:17:54;97401.70;;;1.71;74.90
69127;BME280;56688;50.234;19.292;2023-02-26T01:20:28;97394.91;;;1.72;75.24
69127;BME280;56688;50.234;19.292;2023-02-26T01:23:02;97396.98;;;1.76;75.27
69127;BME280;56688;50.234;19.292;2023-02-26T01:28:06;97398.14;;;1.80;74.86
69127;BME280;56688;50.234;19.292;2023-02-26T01:30:33;97399.71;;;1.82;74.88
69127;BME280;56688;50.234;19.292;2023-02-26T01:33:09;97400.46;;;1.78;74.88
69127;BME280;56688;50.234;19.292;2023-02-26T01:43:36;97401.98;;;1.70;76.02
69127;BME280;56688;50.234;19.292;2023-02-26T01:48:51;97414.73;;;1.67;76.68
69127;BME280;56688;50.234;19.292;2023-02-26T01:54:10;97422.89;;;1.56;76.19
69127;BME280;56688;50.234;19.292;2023-02-26T01:56:37;97427.35;;;1.54;76.03
69127;BME280;56688;50.234;19.292;2023-02-26T01:59:07;97430.09;;;1.52;75.88
69127;BME280;56688;50.234;19.292;2023-02-26T02:01:36;97432.48;;;1.53;75.96
69127;BME280;56688;50.234;19.292;2023-02-26T02:04:07;97435.73;;;1.54;76.02
69127;BME280;56688;50.234;19.292;2023-02-26T02:06:35;97439.52;;;1.55;75.76
69127;BME280;56688;50.234;19.292;2023-02-26T02:09:05;97442.34;;;1.55;75.36
69127;BME280;56688;50.234;19.292;2023-02-26T02:11:33;97443.36;;;1.53;75.09
69127;BME280;56688;50.234;19.292;2023-02-26T02:14:11;97448.23;;;1.51;75.00
69127;BME280;56688;50.234;19.292;2023-02-26T02:17:09;97452.67;;;1.50;74.47
69127;BME280;56688;50.234;19.292;2023-02-26T02:19:49;97458.63;;;1.52;74.60
69127;BME280;56688;50.234;19.292;2023-02-26T02:33:18;97476.23;;;1.45;74.12
69127;BME280;56688;50.234;19.292;2023-02-26T02:35:53;97480.45;;;1.39;73.99
69127;BME280;56688;50.234;19.292;2023-02-26T02:38:30;97481.36;;;1.35;74.08
69127;BME280;56688;50.234;19.292;2023-02-26T02:41:05;97486.73;;;1.32;74.13
69127;BME280;56688;50.234;19.292;2023-02-26T02:43:35;97493.11;;;1.32;74.20
69127;BME280;56688;50.234;19.292;2023-02-26T02:46:06;97495.50;;;1.31;73.75
69127;BME280;56688;50.234;19.292;2023-02-26T02:48:38;97499.98;;;1.30;73.57
69127;BME280;56688;50.234;19.292;2023-02-26T02:51:19;97502.05;;;1.27;73.68
69127;BME280;56688;50.234;19.292;2023-02-26T02:53:52;97503.39;;;1.26;73.50
69127;BME280;56688;50.234;19.292;2023-02-26T02:56:34;97504.20;;;1.25;73.24
69127;BME280;56688;50.234;19.292;2023-02-26T03:01:52;97508.79;;;1.28;73.42
69127;BME280;56688;50.234;19.292;2023-02-26T03:04:24;97503.06;;;1.25;72.96
69127;BME280;56688;50.234;19.292;2023-02-26T03:06:51;97503.61;;;1.24;72.86
69127;BME280;56688;50.234;19.292;2023-02-26T03:09:18;97507.81;;;1.20;72.40
69127;BME280;56688;50.234;19.292;2023-02-26T03:11:45;97509.38;;;1.17;72.43
69127;BME280;56688;50.234;19.292;2023-02-26T03:14:13;97511.22;;;1.16;72.42
69127;BME280;56688;50.234;19.292;2023-02-26T03:16:53;97513.50;;;1.18;72.34
69127;BME280;56688;50.234;19.292;2023-02-26T03:22:12;97523.49;;;1.18;72.06
69127;BME280;56688;50.234;19.292;2023-02-26T03:25:21;97532.14;;;1.17;72.23
69127;BME280;56688;50.234;19.292;2023-02-26T03:28:07;97535.66;;;1.15;71.77
69127;BME280;56688;50.234;19.292;2023-02-26T03:30:43;97548.92;;;1.11;71.36
69127;BME280;56688;50.234;19.292;2023-02-26T03:33:32;97555.67;;;1.08;71.34
69127;BME280;56688;50.234;19.292;2023-02-26T03:36:10;97557.00;;;1.07;71.06
69127;BME280;56688;50.234;19.292;2023-02-26T03:38:42;97561.98;;;1.06;71.23
69127;BME280;56688;50.234;19.292;2023-02-26T03:41:13;97563.80;;;1.06;71.56
69127;BME280;56688;50.234;19.292;2023-02-26T03:43:47;97576.27;;;1.07;71.26
69127;BME280;56688;50.234;19.292;2023-02-26T03:46:20;97577.50;;;1.07;71.88
69127;BME280;56688;50.234;19.292;2023-02-26T03:48:50;97583.17;;;1.06;71.69
69127;BME280;56688;50.234;19.292;2023-02-26T03:51:19;97586.64;;;1.05;71.23
69127;BME280;56688;50.234;19.292;2023-02-26T03:54:04;97587.11;;;1.02;71.86
69127;BME280;56688;50.234;19.292;2023-02-26T03:56:39;97593.02;;;0.99;71.13
69127;BME280;56688;50.234;19.292;2023-02-26T03:59:27;97595.25;;;0.98;71.22
69127;BME280;56688;50.234;19.292;2023-02-26T04:04:43;97601.59;;;0.96;70.80
69127;BME280;56688;50.234;19.292;2023-02-26T04:07:13;97601.84;;;0.95;70.49
69127;BME280;56688;50.234;19.292;2023-02-26T04:09:45;97602.06;;;0.93;69.94
69127;BME280;56688;50.234;19.292;2023-02-26T04:12:13;97604.97;;;0.90;70.15
69127;BME280;56688;50.234;19.292;2023-02-26T04:14:43;97605.33;;;0.88;70.03
69127;BME280;56688;50.234;19.292;2023-02-26T04:17:10;97606.27;;;0.84;70.01
69127;BME280;56688;50.234;19.292;2023-02-26T04:19:37;97612.20;;;0.82;70.06
69127;BME280;56688;50.234;19.292;2023-02-26T04:22:04;97616.70;;;0.83;69.77
69127;BME280;56688;50.234;19.292;2023-02-26T04:24:31;97625.30;;;0.82;69.85
69127;BME280;56688;50.234;19.292;2023-02-26T04:26:59;97628.30;;;0.82;69.93
69127;BME280;56688;50.234;19.292;2023-02-26T04:29:26;97630.47;;;0.78;69.21
69127;BME280;56688;50.234;19.292;2023-02-26T04:31:53;97635.35;;;0.75;69.87
69127;BME280;56688;50.234;19.292;2023-02-26T04:34:20;97637.70;;;0.72;70.24
69127;BME280;56688;50.234;19.292;2023-02-26T04:36:48;97639.30;;;0.71;70.03
69127;BME280;56688;50.234;19.292;2023-02-26T04:39:15;97640.05;;;0.70;70.50
69127;BME280;56688;50.234;19.292;2023-02-26T04:41:42;97648.71;;;0.67;70.37
69127;BME280;56688;50.234;19.292;2023-02-26T04:44:09;97648.13;;;0.62;70.25
69127;BME280;56688;50.234;19.292;2023-02-26T04:46:39;97647.08;;;0.60;69.82
69127;BME280;56688;50.234;19.292;2023-02-26T04:49:07;97652.07;;;0.60;69.10
69127;BME280;56688;50.234;19.292;2023-02-26T04:51:35;97651.90;;;0.60;68.73
69127;BME280;56688;50.234;19.292;2023-02-26T04:54:03;97657.52;;;0.60;68.79
69127;BME280;56688;50.234;19.292;2023-02-26T04:56:30;97661.35;;;0.58;68.42
69127;BME280;56688;50.234;19.292;2023-02-26T04:58:59;97663.14;;;0.56;67.90
69127;BME280;56688;50.234;19.292;2023-02-26T05:01:28;97667.38;;;0.53;68.16
69127;BME280;56688;50.234;19.292;2023-02-26T05:03:54;97668.49;;;0.51;68.20
69127;BME280;56688;50.234;19.292;2023-02-26T05:06:21;97675.36;;;0.49;68.12
69127;BME280;56688;50.234;19.292;2023-02-26T05:08:49;97679.95;;;0.46;68.50
69127;BME280;56688;50.234;19.292;2023-02-26T05:11:16;97684.08;;;0.45;68.88
69127;BME280;56688;50.234;19.292;2023-02-26T05:13:43;97682.63;;;0.46;68.98
69127;BME280;56688;50.234;19.292;2023-02-26T05:16:10;97689.20;;;0.45;68.99
69127;BME280;56688;50.234;19.292;2023-02-26T05:18:37;97695.59;;;0.46;69.18
69127;BME280;56688;50.234;19.292;2023-02-26T05:21:04;97701.16;;;0.48;69.30
69127;BME280;56688;50.234;19.292;2023-02-26T05:23:32;97705.60;;;0.49;69.52
69127;BME280;56688;50.234;19.292;2023-02-26T05:25:59;97711.32;;;0.47;69.52
69127;BME280;56688;50.234;19.292;2023-02-26T05:28:26;97716.20;;;0.45;69.93
69127;BME280;56688;50.234;19.292;2023-02-26T05:30:55;97721.20;;;0.42;69.68
69127;BME280;56688;50.234;19.292;2023-02-26T05:33:23;97727.19;;;0.40;70.24
69127;BME280;56688;50.234;19.292;2023-02-26T05:35:50;97731.53;;;0.38;70.26
69127;BME280;56688;50.234;19.292;2023-02-26T05:38:17;97732.70;;;0.33;70.14
69127;BME280;56688;50.234;19.292;2023-02-26T05:40:44;97739.02;;;0.29;70.17
69127;BME280;56688;50.234;19.292;2023-02-26T05:43:11;97750.66;;;0.31;70.47
69127;BME280;56688;50.234;19.292;2023-02-26T05:45:38;97761.25;;;0.31;70.81
69127;BME280;56688;50.234;19.292;2023-02-26T05:48:05;97770.61;;;0.31;70.73
69127;BME280;56688;50.234;19.292;2023-02-26T05:50:32;97774.05;;;0.31;70.74
69127;BME280;56688;50.234;19.292;2023-02-26T05:52:58;97774.75;;;0.30;71.10
69127;BME280;56688;50.234;19.292;2023-02-26T05:55:25;97781.41;;;0.29;71.24
69127;BME280;56688;50.234;19.292;2023-02-26T05:57:52;97788.09;;;0.25;71.27
69127;BME280;56688;50.234;19.292;2023-02-26T06:00:19;97792.91;;;0.24;71.51
69127;BME280;56688;50.234;19.292;2023-02-26T06:02:46;97798.83;;;0.25;71.43
69127;BME280;56688;50.234;19.292;2023-02-26T06:05:13;97805.05;;;0.25;71.75
69127;BME280;56688;50.234;19.292;2023-02-26T06:07:40;97807.86;;;0.25;71.59
69127;BME280;56688;50.234;19.292;2023-02-26T06:10:08;97814.09;;;0.26;71.42
69127;BME280;56688;50.234;19.292;2023-02-26T06:12:35;97813.33;;;0.27;71.59
69127;BME280;56688;50.234;19.292;2023-02-26T06:15:03;97819.73;;;0.30;71.84
69127;BME280;56688;50.234;19.292;2023-02-26T06:17:30;97822.28;;;0.31;71.66
69127;BME280;56688;50.234;19.292;2023-02-26T06:19:57;97832.94;;;0.29;72.32
69127;BME280;56688;50.234;19.292;2023-02-26T06:22:24;97835.63;;;0.26;72.36
69127;BME280;56688;50.234;19.292;2023-02-26T06:24:51;97836.98;;;0.27;72.61
69127;BME280;56688;50.234;19.292;2023-02-26T06:27:18;97840.48;;;0.26;72.68
69127;BME280;56688;50.234;19.292;2023-02-26T06:29:45;97841.31;;;0.21;72.23
69127;BME280;56688;50.234;19.292;2023-02-26T06:32:12;97847.30;;;0.19;72.72
69127;BME280;56688;50.234;19.292;2023-02-26T06:34:38;97847.71;;;0.21;72.96
69127;BME280;56688;50.234;19.292;2023-02-26T06:37:05;97845.84;;;0.24;73.53
69127;BME280;56688;50.234;19.292;2023-02-26T06:39:32;97848.06;;;0.28;73.47
69127;BME280;56688;50.234;19.292;2023-02-26T06:41:59;97846.82;;;0.34;73.52
69127;BME280;56688;50.234;19.292;2023-02-26T06:44:26;97848.98;;;0.39;73.46
69127;BME280;56688;50.234;19.292;2023-02-26T06:46:52;97854.76;;;0.41;73.28
69127;BME280;56688;50.234;19.292;2023-02-26T06:49:19;97857.96;;;0.41;72.86
69127;BME280;56688;50.234;19.292;2023-02-26T06:51:46;97863.27;;;0.38;72.85
69127;BME280;56688;50.234;19.292;2023-02-26T06:54:13;97867.47;;;0.36;73.07
69127;BME280;56688;50.234;19.292;2023-02-26T06:56:40;97868.47;;;0.39;73.36
69127;BME280;56688;50.234;19.292;2023-02-26T06:59:08;97869.78;;;0.45;72.98
69127;BME280;56688;50.234;19.292;2023-02-26T07:01:35;97874.06;;;0.56;72.95
69127;BME280;56688;50.234;19.292;2023-02-26T07:04:02;97882.23;;;0.68;73.17
69127;BME280;56688;50.234;19.292;2023-02-26T07:06:28;97884.13;;;0.80;72.57
69127;BME280;56688;50.234;19.292;2023-02-26T07:08:55;97886.15;;;0.91;72.00
69127;BME280;56688;50.234;19.292;2023-02-26T07:11:23;97885.20;;;1.00;71.36
69127;BME280;56688;50.234;19.292;2023-02-26T07:13:50;97888.46;;;1.10;71.11
69127;BME280;56688;50.234;19.292;2023-02-26T07:16:17;97892.52;;;1.14;70.67
69127;BME280;56688;50.234;19.292;2023-02-26T07:18:44;97896.65;;;1.13;70.53
69127;BME280;56688;50.234;19.292;2023-02-26T07:21:11;97897.19;;;1.11;70.91
69127;BME280;56688;50.234;19.292;2023-02-26T07:23:38;97899.14;;;1.15;70.82
69127;BME280;56688;50.234;19.292;2023-02-26T07:26:04;97903.77;;;1.14;69.76
69127;BME280;56688;50.234;19.292;2023-02-26T07:28:31;97901.11;;;1.14;70.28
69127;BME280;56688;50.234;19.292;2023-02-26T07:30:58;97903.17;;;1.18;69.99
69127;BME280;56688;50.234;19.292;2023-02-26T07:33:25;97905.04;;;1.24;69.56
69127;BME280;56688;50.234;19.292;2023-02-26T07:35:54;97907.95;;;1.31;68.91
69127;BME280;56688;50.234;19.292;2023-02-26T07:38:21;97910.23;;;1.36;68.74
69127;BME280;56688;50.234;19.292;2023-02-26T07:40:47;97908.78;;;1.37;68.43
69127;BME280;56688;50.234;19.292;2023-02-26T07:43:14;97918.48;;;1.49;67.90
69127;BME280;56688;50.234;19.292;2023-02-26T07:45:41;97922.95;;;1.63;67.48
69127;BME280;56688;50.234;19.292;2023-02-26T07:48:08;97926.63;;;1.74;66.65
69127;BME280;56688;50.234;19.292;2023-02-26T07:50:35;97933.25;;;1.87;65.51
69127;BME280;56688;50.234;19.292;2023-02-26T07:53:02;97934.94;;;2.03;63.85
69127;BME280;56688;50.234;19.292;2023-02-26T07:55:29;97934.02;;;2.25;62.51
69127;BME280;56688;50.234;19.292;2023-02-26T07:57:55;97935.66;;;2.68;60.69
69127;BME280;56688;50.234;19.292;2023-02-26T08:00:22;97934.73;;;3.22;57.64
69127;BME280;56688;50.234;19.292;2023-02-26T08:02:49;97931.16;;;3.71;55.98
69127;BME280;56688;50.234;19.292;2023-02-26T08:05:16;97934.97;;;4.03;54.49
69127;BME280;56688;50.234;19.292;2023-02-26T08:07:43;97935.74;;;4.22;53.66
69127;BME280;56688;50.234;19.292;2023-02-26T08:10:10;97936.36;;;4.54;53.09
69127;BME280;56688;50.234;19.292;2023-02-26T08:12:37;97940.63;;;5.06;54.10
69127;BME280;56688;50.234;19.292;2023-02-26T08:15:05;97938.26;;;5.75;52.96
69127;BME280;56688;50.234;19.292;2023-02-26T08:17:32;97932.38;;;6.55;50.50
69127;BME280;56688;50.234;19.292;2023-02-26T08:19:59;97931.21;;;7.27;48.38
69127;BME280;56688;50.234;19.292;2023-02-26T08:22:26;97935.13;;;8.02;46.76
69127;BME280;56688;50.234;19.292;2023-02-26T08:24:53;97939.07;;;8.62;45.33
69127;BME280;56688;50.234;19.292;2023-02-26T08:27:19;97941.32;;;9.05;43.97
69127;BME280;56688;50.234;19.292;2023-02-26T08:29:46;97945.11;;;9.39;43.56
69127;BME280;56688;50.234;19.292;2023-02-26T08:32:17;97950.34;;;9.60;43.36
69127;BME280;56688;50.234;19.292;2023-02-26T08:34:45;97951.10;;;9.84;42.78
69127;BME280;56688;50.234;19.292;2023-02-26T08:37:12;97953.20;;;9.94;41.61
69127;BME280;56688;50.234;19.292;2023-02-26T08:39:40;97950.73;;;9.94;40.84
69127;BME280;56688;50.234;19.292;2023-02-26T08:42:08;97948.14;;;9.99;40.88
69127;BME280;56688;50.234;19.292;2023-02-26T08:44:35;97942.55;;;10.22;40.91
69127;BME280;56688;50.234;19.292;2023-02-26T08:47:02;97932.67;;;10.48;40.27
69127;BME280;56688;50.234;19.292;2023-02-26T08:49:29;97935.18;;;10.66;39.78
69127;BME280;56688;50.234;19.292;2023-02-26T08:51:56;97946.49;;;10.88;39.51
69127;BME280;56688;50.234;19.292;2023-02-26T08:54:23;97945.39;;;11.21;38.72
69127;BME280;56688;50.234;19.292;2023-02-26T08:56:50;97949.69;;;11.58;37.97
69127;BME280;56688;50.234;19.292;2023-02-26T08:59:18;97961.27;;;11.78;37.78
69127;BME280;56688;50.234;19.292;2023-02-26T09:01:45;97970.73;;;11.72;36.62
69127;BME280;56688;50.234;19.292;2023-02-26T09:04:12;97984.30;;;11.35;36.81
69127;BME280;56688;50.234;19.292;2023-02-26T09:06:39;97997.23;;;10.54;39.91
69127;BME280;56688;50.234;19.292;2023-02-26T09:09:06;98011.58;;;9.94;42.07
69127;BME280;56688;50.234;19.292;2023-02-26T09:11:33;98018.05;;;9.32;43.47
69127;BME280;56688;50.234;19.292;2023-02-26T09:14:02;98030.00;;;8.52;45.43
69127;BME280;56688;50.234;19.292;2023-02-26T09:16:30;98041.12;;;7.85;47.46
69127;BME280;56688;50.234;19.292;2023-02-26T09:18:57;98043.67;;;7.29;48.96
69127;BME280;56688;50.234;19.292;2023-02-26T09:21:24;98045.77;;;6.83;50.69
69127;BME280;56688;50.234;19.292;2023-02-26T09:23:51;98047.66;;;6.53;52.05
69127;BME280;56688;50.234;19.292;2023-02-26T09:26:18;98052.30;;;6.35;52.69
69127;BME280;56688;50.234;19.292;2023-02-26T09:28:45;98059.41;;;6.16;53.07
69127;BME280;56688;50.234;19.292;2023-02-26T09:31:11;98060.41;;;5.98;53.20
69127;BME280;56688;50.234;19.292;2023-02-26T09:33:38;98063.02;;;5.80;53.45
69127;BME280;56688;50.234;19.292;2023-02-26T09:36:06;98065.80;;;5.61;54.01
69127;BME280;56688;50.234;19.292;2023-02-26T09:38:33;98071.58;;;5.36;55.08
69127;BME280;56688;50.234;19.292;2023-02-26T09:41:05;98075.55;;;5.23;55.43
69127;BME280;56688;50.234;19.292;2023-02-26T09:46:25;98078.83;;;5.01;56.07
69127;BME280;56688;50.234;19.292;2023-02-26T09:49:04;98079.50;;;4.83;55.47
69127;BME280;56688;50.234;19.292;2023-02-26T09:51:33;98084.04;;;4.74;55.87
69127;BME280;56688;50.234;19.292;2023-02-26T09:54:13;98089.05;;;4.55;56.53
69127;BME280;56688;50.234;19.292;2023-02-26T09:56:42;98095.38;;;4.34;56.65
69127;BME280;56688;50.234;19.292;2023-02-26T09:59:10;98096.10;;;4.11;56.68
69127;BME280;56688;50.234;19.292;2023-02-26T10:01:53;98093.42;;;3.96;57.26
69127;BME280;56688;50.234;19.292;2023-02-26T10:12:33;98104.96;;;3.35;59.54
69127;BME280;56688;50.234;19.292;2023-02-26T10:20:19;98112.02;;;3.44;57.30
69127;BME280;56688;50.234;19.292;2023-02-26T10:25:37;98114.24;;;3.66;56.04
69127;BME280;56688;50.234;19.292;2023-02-26T10:31:11;98119.31;;;4.28;55.64
69127;BME280;56688;50.234;19.292;2023-02-26T10:34:02;98121.56;;;4.59;54.43
69127;BME280;56688;50.234;19.292;2023-02-26T10:36:47;98121.44;;;4.90;52.74
69127;BME280;56688;50.234;19.292;2023-02-26T10:41:48;98121.00;;;5.23;50.91
69127;BME280;56688;50.234;19.292;2023-02-26T10:44:23;98132.43;;;5.30;50.58
69127;BME280;56688;50.234;19.292;2023-02-26T10:47:12;98135.23;;;5.32;49.47
69127;BME280;56688;50.234;19.292;2023-02-26T10:49:52;98145.61;;;5.27;49.43
69127;BME280;56688;50.234;19.292;2023-02-26T10:52:23;98142.11;;;5.19;49.69
69127;BME280;56688;50.234;19.292;2023-02-26T10:57:55;98144.90;;;4.94;49.96
69127;BME280;56688;50.234;19.292;2023-02-26T11:00:26;98146.80;;;4.88;50.13
69127;BME280;56688;50.234;19.292;2023-02-26T11:02:53;98149.98;;;4.76;50.88
69127;BME280;56688;50.234;19.292;2023-02-26T11:05:23;98150.82;;;4.74;50.87
69127;BME280;56688;50.234;19.292;2023-02-26T11:07:54;98153.98;;;4.74;51.14
69127;BME280;56688;50.234;19.292;2023-02-26T11:10:24;98151.61;;;4.77;50.78
69127;BME280;56688;50.234;19.292;2023-02-26T11:12:53;98157.89;;;4.85;50.56
69127;BME280;56688;50.234;19.292;2023-02-26T11:15:22;98153.14;;;4.90;50.47
69127;BME280;56688;50.234;19.292;2023-02-26T11:17:53;98165.20;;;4.87;50.46
69127;BME280;56688;50.234;19.292;2023-02-26T11:20:32;98173.93;;;4.78;49.95
69127;BME280;56688;50.234;19.292;2023-02-26T11:23:01;98177.52;;;4.65;49.94
69127;BME280;56688;50.234;19.292;2023-02-26T11:25:31;98179.56;;;4.58;50.98
69127;BME280;56688;50.234;19.292;2023-02-26T11:28:06;98182.70;;;4.55;51.74
69127;BME280;56688;50.234;19.292;2023-02-26T11:30:37;98182.91;;;4.56;52.16
69127;BME280;56688;50.234;19.292;2023-02-26T11:33:15;98187.44;;;4.62;52.01
69127;BME280;56688;50.234;19.292;2023-02-26T11:35:44;98188.15;;;4.69;51.57
69127;BME280;56688;50.234;19.292;2023-02-26T11:38:18;98189.14;;;4.76;51.15
69127;BME280;56688;50.234;19.292;2023-02-26T11:40:51;98188.97;;;4.90;51.22
69127;BME280;56688;50.234;19.292;2023-02-26T11:43:21;98191.52;;;5.06;50.91
69127;BME280;56688;50.234;19.292;2023-02-26T11:45:58;98192.66;;;5.30;50.89
69127;BME280;56688;50.234;19.292;2023-02-26T11:48:39;98198.70;;;5.56;49.88
69127;BME280;56688;50.234;19.292;2023-02-26T11:51:11;98200.08;;;5.63;49.95
69127;BME280;56688;50.234;19.292;2023-02-26T11:53:48;98212.39;;;5.48;50.22
69127;BME280;56688;50.234;19.292;2023-02-26T11:56:37;98216.79;;;5.17;51.19
69127;BME280;56688;50.234;19.292;2023-02-26T11:59:16;98226.12;;;4.80;52.01
69127;BME280;56688;50.234;19.292;2023-02-26T12:01:43;98229.26;;;4.55;52.76
69127;BME280;56688;50.234;19.292;2023-02-26T12:04:18;98237.65;;;4.38;52.74
69127;BME280;56688;50.234;19.292;2023-02-26T12:06:48;98241.67;;;4.26;52.96
69127;BME280;56688;50.234;19.292;2023-02-26T12:09:17;98241.83;;;4.23;53.92
69127;BME280;56688;50.234;19.292;2023-02-26T12:14:32;98244.51;;;4.49;53.21
69127;BME280;56688;50.234;19.292;2023-02-26T12:38:29;98270.33;;;5.18;48.75
69127;BME280;56688;50.234;19.292;2023-02-26T12:41:05;98268.36;;;5.22;47.82
69127;BME280;56688;50.234;19.292;2023-02-26T12:43:53;98270.58;;;5.31;47.65
69127;BME280;56688;50.234;19.292;2023-02-26T12:57:24;98285.27;;;5.29;48.89
69127;BME280;56688;50.234;19.292;2023-02-26T13:00:09;98288.44;;;5.24;48.35
69127;BME280;56688;50.234;19.292;2023-02-26T13:05:23;98292.86;;;5.14;48.88
69127;BME280;56688;50.234;19.292;2023-02-26T13:16:15;98309.35;;;4.50;50.35
69127;BME280;56688;50.234;19.292;2023-02-26T13:21:45;98313.14;;;4.22;51.76
69127;BME280;56688;50.234;19.292;2023-02-26T13:24:20;98323.84;;;4.07;53.11
69127;BME280;56688;50.234;19.292;2023-02-26T13:26:50;98324.30;;;3.90;53.79
69127;BME280;56688;50.234;19.292;2023-02-26T13:29:23;98332.92;;;3.75;53.57
69127;BME280;56688;50.234;19.292;2023-02-26T13:31:58;98341.55;;;3.59;53.34
69127;BME280;56688;50.234;19.292;2023-02-26T13:34:35;98350.97;;;3.42;53.75
69127;BME280;56688;50.234;19.292;2023-02-26T13:37:04;98354.37;;;3.21;55.06
69127;BME280;56688;50.234;19.292;2023-02-26T13:39:44;98359.16;;;3.02;55.59
69127;BME280;56688;50.234;19.292;2023-02-26T13:42:35;98366.73;;;2.83;56.13
69127;BME280;56688;50.234;19.292;2023-02-26T13:53:34;98388.93;;;2.21;56.54
69127;BME280;56688;50.234;19.292;2023-02-26T13:56:13;98389.70;;;2.11;56.37
69127;BME280;56688;50.234;19.292;2023-02-26T13:58:43;98392.55;;;2.05;56.64
69127;BME280;56688;50.234;19.292;2023-02-26T14:01:26;98399.13;;;2.00;56.89
69127;BME280;56688;50.234;19.292;2023-02-26T14:09:29;98399.65;;;1.90;57.00
69127;BME280;56688;50.234;19.292;2023-02-26T14:12:13;98406.40;;;1.91;56.81
69127;BME280;56688;50.234;19.292;2023-02-26T14:35:01;98420.22;;;1.92;56.31
69127;BME280;56688;50.234;19.292;2023-02-26T14:37:29;98423.42;;;1.89;56.90
69127;BME280;56688;50.234;19.292;2023-02-26T14:40:05;98421.98;;;1.88;57.18
69127;BME280;56688;50.234;19.292;2023-02-26T14:42:43;98423.34;;;1.86;57.30
69127;BME280;56688;50.234;19.292;2023-02-26T14:47:47;98426.64;;;1.80;57.17
69127;BME280;56688;50.234;19.292;2023-02-26T14:50:17;98429.04;;;1.78;57.33
69127;BME280;56688;50.234;19.292;2023-02-26T14:53:06;98434.17;;;1.73;57.59
69127;BME280;56688;50.234;19.292;2023-02-26T14:58:15;98444.58;;;1.60;57.71
69127;BME280;56688;50.234;19.292;2023-02-26T15:14:29;98469.46;;;1.55;59.50
69127;BME280;56688;50.234;19.292;2023-02-26T15:22:51;98488.69;;;1.50;60.88
69127;BME280;56688;50.234;19.292;2023-02-26T15:25:30;98496.36;;;1.44;61.27
69127;BME280;56688;50.234;19.292;2023-02-26T15:28:00;98501.30;;;1.40;61.84
69127;BME280;56688;50.234;19.292;2023-02-26T15:30:30;98503.02;;;1.32;62.47
69127;BME280;56688;50.234;19.292;2023-02-26T15:32:59;98509.45;;;1.24;63.03
69127;BME280;56688;50.234;19.292;2023-02-26T15:35:28;98515.50;;;1.19;63.79
69127;BME280;56688;50.234;19.292;2023-02-26T15:37:59;98510.20;;;1.18;64.66
69127;BME280;56688;50.234;19.292;2023-02-26T15:40:30;98518.63;;;1.18;65.14
69127;BME280;56688;50.234;19.292;2023-02-26T15:42:59;98520.13;;;1.14;65.93
69127;BME280;56688;50.234;19.292;2023-02-26T15:45:32;98522.57;;;1.10;66.53
69127;BME280;56688;50.234;19.292;2023-02-26T15:48:05;98525.21;;;1.04;67.07
69127;BME280;56688;50.234;19.292;2023-02-26T15:50:39;98528.58;;;0.95;67.88
69127;BME280;56688;50.234;19.292;2023-02-26T15:53:08;98529.94;;;0.89;68.57
69127;BME280;56688;50.234;19.292;2023-02-26T15:55:51;98535.30;;;0.88;69.20
69127;BME280;56688;50.234;19.292;2023-02-26T15:58:29;98535.90;;;0.80;69.62
69127;BME280;56688;50.234;19.292;2023-02-26T16:01:00;98537.40;;;0.69;70.44
69127;BME280;56688;50.234;19.292;2023-02-26T16:03:30;98542.68;;;0.60;70.91
69127;BME280;56688;50.234;19.292;2023-02-26T16:05:58;98544.10;;;0.46;71.47
69127;BME280;56688;50.234;19.292;2023-02-26T16:08:25;98549.86;;;0.36;71.96
69127;BME280;56688;50.234;19.292;2023-02-26T16:10:55;98556.95;;;0.35;72.36
69127;BME280;56688;50.234;19.292;2023-02-26T16:16:18;98569.70;;;0.34;72.53